sensor_id;sensor_type;location;lat;lon;timestamp;temperature;humidity
23156;DHT22;11746;50.876;4.246;2023-07-31T00:00:33;17.10;99.90
23156;DHT22;11746;50.876;4.246;2023-07-31T00:02:59;17.20;99.90
23156;DHT22;11746;50.876;4.246;2023-07-31T00:05:25;17.20;99.90
23156;DHT22;11746;50.876;4.246;2023-07-31T00:07:51;17.10;99.90
23156;DHT22;11746;50.876;4.246;2023-07-31T00:10:17;17.10;99.90
23156;DHT22;11746;50.876;4.246;2023-07-31T00:12:44;17.20;99.90
23156;DHT22;11746;50.876;4.246;2023-07-31T00:15:10;17.30;99.90
23156;DHT22;11746;50.876;4.246;2023-07-31T00:17:37;17.20;99.90
23156;DHT22;11746;50.876;4.246;2023-07-31T00:20:03;17.20;99.90
23156;DHT22;11746;50.876;4.246;2023-07-31T00:22:29;17.30;99.90
23156;DHT22;11746;50.876;4.246;2023-07-31T00:24:56;17.30;99.90
23156;DHT22;11746;50.876;4.246;2023-07-31T00:27:22;17.30;99.90
23156;DHT22;11746;50.876;4.246;2023-07-31T00:29:48;17.20;99.90
23156;DHT22;11746;50.876;4.246;2023-07-31T00:32:14;17.30;99.90
23156;DHT22;11746;50.876;4.246;2023-07-31T00:34:40;17.30;99.90
23156;DHT22;11746;50.876;4.246;2023-07-31T00:37:06;17.20;99.90
23156;DHT22;11746;50.876;4.246;2023-07-31T00:39:34;17.30;99.90
23156;DHT22;11746;50.876;4.246;2023-07-31T00:42:00;17.30;99.90
23156;DHT22;11746;50.876;4.246;2023-07-31T00:44:26;17.30;99.90
23156;DHT22;11746;50.876;4.246;2023-07-31T00:46:52;17.30;99.90
23156;DHT22;11746;50.876;4.246;2023-07-31T00:49:18;17.30;99.90
23156;DHT22;11746;50.876;4.246;2023-07-31T00:51:44;17.30;99.90
23156;DHT22;11746;50.876;4.246;2023-07-31T00:54:11;17.30;99.90
23156;DHT22;11746;50.876;4.246;2023-07-31T00:56:37;17.20;99.90
23156;DHT22;11746;50.876;4.246;2023-07-31T00:59:03;17.20;99.90
23156;DHT22;11746;50.876;4.246;2023-07-31T01:01:29;17.20;99.90
23156;DHT22;11746;50.876;4.246;2023-07-31T01:03:55;17.20;99.90
23156;DHT22;11746;50.876;4.246;2023-07-31T01:09:02;17.20;99.90
23156;DHT22;11746;50.876;4.246;2023-07-31T01:12:30;17.20;99.90
23156;DHT22;11746;50.876;4.246;2023-07-31T01:14:25;17.20;99.90
23156;DHT22;11746;50.876;4.246;2023-07-31T01:16:51;17.20;99.90
23156;DHT22;11746;50.876;4.246;2023-07-31T01:19:21;17.10;99.90
23156;DHT22;11746;50.876;4.246;2023-07-31T01:22:12;17.20;99.90
23156;DHT22;11746;50.876;4.246;2023-07-31T01:25:16;17.20;99.90
23156;DHT22;11746;50.876;4.246;2023-07-31T01:28:02;17.20;99.90
23156;DHT22;11746;50.876;4.246;2023-07-31T01:30:37;17.10;99.90
23156;DHT22;11746;50.876;4.246;2023-07-31T01:33:03;17.20;99.90
23156;DHT22;11746;50.876;4.246;2023-07-31T01:35:36;17.20;99.90
23156;DHT22;11746;50.876;4.246;2023-07-31T01:38:03;17.20;99.90
23156;DHT22;11746;50.876;4.246;2023-07-31T01:40:30;17.20;99.90
23156;DHT22;11746;50.876;4.246;2023-07-31T01:42:56;17.30;99.90
23156;DHT22;11746;50.876;4.246;2023-07-31T01:45:21;17.30;99.90
23156;DHT22;11746;50.876;4.246;2023-07-31T01:47:47;17.30;99.90
23156;DHT22;11746;50.876;4.246;2023-07-31T01:50:13;17.40;99.90
23156;DHT22;11746;50.876;4.246;2023-07-31T01:52:39;17.40;99.90
23156;DHT22;11746;50.876;4.246;2023-07-31T01:55:05;17.40;99.90
23156;DHT22;11746;50.876;4.246;2023-07-31T01:57:31;17.40;99.90
23156;DHT22;11746;50.876;4.246;2023-07-31T01:59:57;17.30;99.90
23156;DHT22;11746;50.876;4.246;2023-07-31T02:02:23;17.30;99.90
23156;DHT22;11746;50.876;4.246;2023-07-31T02:04:49;17.30;99.90
23156;DHT22;11746;50.876;4.246;2023-07-31T02:07:15;17.30;99.90
23156;DHT22;11746;50.876;4.246;2023-07-31T02:09:41;17.40;99.90
23156;DHT22;11746;50.876;4.246;2023-07-31T02:12:07;17.40;99.90
23156;DHT22;11746;50.876;4.246;2023-07-31T02:14:34;17.50;99.90
23156;DHT22;11746;50.876;4.246;2023-07-31T02:17:00;17.50;99.90
23156;DHT22;11746;50.876;4.246;2023-07-31T02:19:26;17.40;99.90
23156;DHT22;11746;50.876;4.246;2023-07-31T02:21:52;17.50;99.90
23156;DHT22;11746;50.876;4.246;2023-07-31T02:24:18;17.50;99.90
23156;DHT22;11746;50.876;4.246;2023-07-31T02:26:43;17.50;99.90
23156;DHT22;11746;50.876;4.246;2023-07-31T02:29:09;17.50;99.90
23156;DHT22;11746;50.876;4.246;2023-07-31T02:31:35;17.50;99.90
23156;DHT22;11746;50.876;4.246;2023-07-31T02:34:01;17.50;99.90
23156;DHT22;11746;50.876;4.246;2023-07-31T02:36:27;17.50;99.90
23156;DHT22;11746;50.876;4.246;2023-07-31T02:38:53;17.70;99.90
23156;DHT22;11746;50.876;4.246;2023-07-31T02:41:19;17.70;99.90
23156;DHT22;11746;50.876;4.246;2023-07-31T02:43:45;17.70;99.90
23156;DHT22;11746;50.876;4.246;2023-07-31T02:46:11;17.60;99.90
23156;DHT22;11746;50.876;4.246;2023-07-31T02:48:36;17.70;99.90
23156;DHT22;11746;50.876;4.246;2023-07-31T02:51:02;17.70;99.90
23156;DHT22;11746;50.876;4.246;2023-07-31T02:53:28;17.70;99.90
23156;DHT22;11746;50.876;4.246;2023-07-31T02:55:54;17.50;99.90
23156;DHT22;11746;50.876;4.246;2023-07-31T02:58:20;17.50;99.90
23156;DHT22;11746;50.876;4.246;2023-07-31T03:00:46;17.40;99.90
23156;DHT22;11746;50.876;4.246;2023-07-31T03:03:12;17.40;99.90
23156;DHT22;11746;50.876;4.246;2023-07-31T03:05:38;17.40;99.90
23156;DHT22;11746;50.876;4.246;2023-07-31T03:08:04;17.30;99.90
23156;DHT22;11746;50.876;4.246;2023-07-31T03:10:30;17.30;99.90
23156;DHT22;11746;50.876;4.246;2023-07-31T03:12:55;17.30;99.90
23156;DHT22;11746;50.876;4.246;2023-07-31T03:15:21;17.30;99.90
23156;DHT22;11746;50.876;4.246;2023-07-31T03:17:47;17.30;99.90
23156;DHT22;11746;50.876;4.246;2023-07-31T03:20:13;17.20;99.90
23156;DHT22;11746;50.876;4.246;2023-07-31T03:22:39;17.20;99.90
23156;DHT22;11746;50.876;4.246;2023-07-31T03:25:05;17.10;99.90
23156;DHT22;11746;50.876;4.246;2023-07-31T03:27:31;17.10;99.90
23156;DHT22;11746;50.876;4.246;2023-07-31T03:29:57;17.10;99.90
23156;DHT22;11746;50.876;4.246;2023-07-31T03:32:24;17.20;99.90
23156;DHT22;11746;50.876;4.246;2023-07-31T03:34:50;17.20;99.90
23156;DHT22;11746;50.876;4.246;2023-07-31T03:37:16;17.00;99.90
23156;DHT22;11746;50.876;4.246;2023-07-31T03:39:42;17.00;99.90
23156;DHT22;11746;50.876;4.246;2023-07-31T03:42:08;17.00;99.90
23156;DHT22;11746;50.876;4.246;2023-07-31T03:44:33;17.00;99.90
23156;DHT22;11746;50.876;4.246;2023-07-31T03:46:59;17.00;99.90
23156;DHT22;11746;50.876;4.246;2023-07-31T03:49:25;17.00;99.90
23156;DHT22;11746;50.876;4.246;2023-07-31T03:51:51;16.90;99.90
23156;DHT22;11746;50.876;4.246;2023-07-31T03:54:17;17.10;99.90
23156;DHT22;11746;50.876;4.246;2023-07-31T03:56:43;17.10;99.90
23156;DHT22;11746;50.876;4.246;2023-07-31T03:59:09;17.00;99.90
23156;DHT22;11746;50.876;4.246;2023-07-31T04:01:34;17.00;99.90
23156;DHT22;11746;50.876;4.246;2023-07-31T04:04:00;16.90;99.90
23156;DHT22;11746;50.876;4.246;2023-07-31T04:06:26;16.90;99.90
23156;DHT22;11746;50.876;4.246;2023-07-31T04:08:52;16.90;99.90
23156;DHT22;11746;50.876;4.246;2023-07-31T04:11:18;16.90;99.90
23156;DHT22;11746;50.876;4.246;2023-07-31T04:13:44;17.00;99.90
23156;DHT22;11746;50.876;4.246;2023-07-31T04:16:10;16.90;99.90
23156;DHT22;11746;50.876;4.246;2023-07-31T04:18:36;16.80;99.90
23156;DHT22;11746;50.876;4.246;2023-07-31T04:21:02;16.80;99.90
23156;DHT22;11746;50.876;4.246;2023-07-31T04:23:28;16.70;99.90
23156;DHT22;11746;50.876;4.246;2023-07-31T04:25:54;16.80;99.90
23156;DHT22;11746;50.876;4.246;2023-07-31T04:28:20;16.70;99.90
23156;DHT22;11746;50.876;4.246;2023-07-31T04:30:46;16.70;99.90
23156;DHT22;11746;50.876;4.246;2023-07-31T04:33:12;16.70;99.90
23156;DHT22;11746;50.876;4.246;2023-07-31T04:35:38;16.70;99.90
23156;DHT22;11746;50.876;4.246;2023-07-31T04:38:04;16.80;99.90
23156;DHT22;11746;50.876;4.246;2023-07-31T04:40:29;16.80;99.90
23156;DHT22;11746;50.876;4.246;2023-07-31T04:42:55;16.80;99.90
23156;DHT22;11746;50.876;4.246;2023-07-31T04:45:21;16.80;99.90
23156;DHT22;11746;50.876;4.246;2023-07-31T04:47:47;16.80;99.90
23156;DHT22;11746;50.876;4.246;2023-07-31T04:50:13;16.80;99.90
23156;DHT22;11746;50.876;4.246;2023-07-31T04:52:39;16.80;99.90
23156;DHT22;11746;50.876;4.246;2023-07-31T04:55:05;16.80;99.90
23156;DHT22;11746;50.876;4.246;2023-07-31T04:57:33;16.90;99.90
23156;DHT22;11746;50.876;4.246;2023-07-31T04:59:59;16.90;99.90
23156;DHT22;11746;50.876;4.246;2023-07-31T05:02:25;16.80;99.90
23156;DHT22;11746;50.876;4.246;2023-07-31T05:04:51;16.80;99.90
23156;DHT22;11746;50.876;4.246;2023-07-31T05:07:17;16.80;99.90
23156;DHT22;11746;50.876;4.246;2023-07-31T05:09:43;16.80;99.90
23156;DHT22;11746;50.876;4.246;2023-07-31T05:12:08;16.80;99.90
23156;DHT22;11746;50.876;4.246;2023-07-31T05:14:34;16.70;99.90
23156;DHT22;11746;50.876;4.246;2023-07-31T05:17:00;16.70;99.90
23156;DHT22;11746;50.876;4.246;2023-07-31T05:19:26;16.60;99.90
23156;DHT22;11746;50.876;4.246;2023-07-31T05:21:52;16.50;99.90
23156;DHT22;11746;50.876;4.246;2023-07-31T05:24:18;16.60;99.90
23156;DHT22;11746;50.876;4.246;2023-07-31T05:26:46;16.60;99.90
23156;DHT22;11746;50.876;4.246;2023-07-31T05:29:12;16.60;99.90
23156;DHT22;11746;50.876;4.246;2023-07-31T05:31:38;16.60;99.90
23156;DHT22;11746;50.876;4.246;2023-07-31T05:34:04;16.50;99.90
23156;DHT22;11746;50.876;4.246;2023-07-31T05:36:30;16.60;99.90
23156;DHT22;11746;50.876;4.246;2023-07-31T05:38:56;16.60;99.90
23156;DHT22;11746;50.876;4.246;2023-07-31T05:41:22;16.50;99.90
23156;DHT22;11746;50.876;4.246;2023-07-31T05:43:48;16.50;99.90
23156;DHT22;11746;50.876;4.246;2023-07-31T05:46:13;16.50;99.90
23156;DHT22;11746;50.876;4.246;2023-07-31T05:48:39;16.50;99.90
23156;DHT22;11746;50.876;4.246;2023-07-31T05:51:05;16.60;99.90
23156;DHT22;11746;50.876;4.246;2023-07-31T05:53:31;16.60;99.90
23156;DHT22;11746;50.876;4.246;2023-07-31T05:55:57;16.60;99.90
23156;DHT22;11746;50.876;4.246;2023-07-31T05:58:23;16.50;99.90
23156;DHT22;11746;50.876;4.246;2023-07-31T06:00:49;16.50;99.90
23156;DHT22;11746;50.876;4.246;2023-07-31T06:03:15;16.70;99.90
23156;DHT22;11746;50.876;4.246;2023-07-31T06:05:41;16.70;99.90
23156;DHT22;11746;50.876;4.246;2023-07-31T06:08:07;16.70;99.90
23156;DHT22;11746;50.876;4.246;2023-07-31T06:10:32;16.80;99.90
23156;DHT22;11746;50.876;4.246;2023-07-31T06:13:00;16.80;99.90
23156;DHT22;11746;50.876;4.246;2023-07-31T06:15:26;16.80;99.90
23156;DHT22;11746;50.876;4.246;2023-07-31T06:17:52;16.80;99.90
23156;DHT22;11746;50.876;4.246;2023-07-31T06:20:18;16.90;99.90
23156;DHT22;11746;50.876;4.246;2023-07-31T06:22:43;16.80;99.90
23156;DHT22;11746;50.876;4.246;2023-07-31T06:25:12;16.80;99.90
23156;DHT22;11746;50.876;4.246;2023-07-31T06:27:38;16.80;99.90
23156;DHT22;11746;50.876;4.246;2023-07-31T06:30:04;16.80;99.90
23156;DHT22;11746;50.876;4.246;2023-07-31T06:32:30;16.80;99.90
23156;DHT22;11746;50.876;4.246;2023-07-31T06:34:56;16.90;99.90
23156;DHT22;11746;50.876;4.246;2023-07-31T06:37:22;16.90;99.90
23156;DHT22;11746;50.876;4.246;2023-07-31T06:39:48;16.90;99.90
23156;DHT22;11746;50.876;4.246;2023-07-31T06:42:14;17.00;99.90
23156;DHT22;11746;50.876;4.246;2023-07-31T06:44:40;17.00;99.90
23156;DHT22;11746;50.876;4.246;2023-07-31T06:47:07;17.00;99.90
23156;DHT22;11746;50.876;4.246;2023-07-31T06:49:33;17.00;99.90
23156;DHT22;11746;50.876;4.246;2023-07-31T06:51:59;17.00;99.90
23156;DHT22;11746;50.876;4.246;2023-07-31T06:54:25;17.00;99.90
23156;DHT22;11746;50.876;4.246;2023-07-31T06:56:51;17.10;99.90
23156;DHT22;11746;50.876;4.246;2023-07-31T06:59:16;17.10;99.90
23156;DHT22;11746;50.876;4.246;2023-07-31T07:01:42;17.20;99.90
23156;DHT22;11746;50.876;4.246;2023-07-31T07:04:08;17.30;99.90
23156;DHT22;11746;50.876;4.246;2023-07-31T07:06:34;17.40;99.90
23156;DHT22;11746;50.876;4.246;2023-07-31T07:09:00;17.40;99.90
23156;DHT22;11746;50.876;4.246;2023-07-31T07:11:26;17.40;99.90
23156;DHT22;11746;50.876;4.246;2023-07-31T07:13:52;17.50;99.90
23156;DHT22;11746;50.876;4.246;2023-07-31T07:16:18;17.60;99.90
23156;DHT22;11746;50.876;4.246;2023-07-31T07:18:43;17.60;99.90
23156;DHT22;11746;50.876;4.246;2023-07-31T07:21:09;17.70;99.90
23156;DHT22;11746;50.876;4.246;2023-07-31T07:23:40;17.60;99.90
23156;DHT22;11746;50.876;4.246;2023-07-31T07:26:05;17.70;99.90
23156;DHT22;11746;50.876;4.246;2023-07-31T07:28:31;17.70;99.90
23156;DHT22;11746;50.876;4.246;2023-07-31T07:30:57;17.50;99.90
23156;DHT22;11746;50.876;4.246;2023-07-31T07:33:23;17.40;99.90
23156;DHT22;11746;50.876;4.246;2023-07-31T07:35:49;17.40;99.90
23156;DHT22;11746;50.876;4.246;2023-07-31T07:38:15;17.50;99.90
23156;DHT22;11746;50.876;4.246;2023-07-31T07:40:41;17.60;99.90
23156;DHT22;11746;50.876;4.246;2023-07-31T07:43:08;17.70;99.90
23156;DHT22;11746;50.876;4.246;2023-07-31T07:45:34;17.70;99.90
23156;DHT22;11746;50.876;4.246;2023-07-31T07:47:59;17.60;99.90
23156;DHT22;11746;50.876;4.246;2023-07-31T07:50:25;17.60;99.90
23156;DHT22;11746;50.876;4.246;2023-07-31T07:52:51;17.50;99.90
23156;DHT22;11746;50.876;4.246;2023-07-31T07:55:17;17.50;99.90
23156;DHT22;11746;50.876;4.246;2023-07-31T07:57:43;17.60;99.90
23156;DHT22;11746;50.876;4.246;2023-07-31T08:00:11;17.60;99.90
23156;DHT22;11746;50.876;4.246;2023-07-31T08:02:37;17.70;99.90
23156;DHT22;11746;50.876;4.246;2023-07-31T08:05:03;17.70;99.90
23156;DHT22;11746;50.876;4.246;2023-07-31T08:07:29;17.70;99.90
23156;DHT22;11746;50.876;4.246;2023-07-31T08:09:55;17.80;99.90
23156;DHT22;11746;50.876;4.246;2023-07-31T08:12:21;17.80;99.90
23156;DHT22;11746;50.876;4.246;2023-07-31T08:14:47;17.80;99.90
23156;DHT22;11746;50.876;4.246;2023-07-31T08:17:12;17.80;99.90
23156;DHT22;11746;50.876;4.246;2023-07-31T08:19:38;17.80;99.90
23156;DHT22;11746;50.876;4.246;2023-07-31T08:22:04;17.80;99.90
23156;DHT22;11746;50.876;4.246;2023-07-31T08:24:31;17.70;99.90
23156;DHT22;11746;50.876;4.246;2023-07-31T08:26:57;17.70;99.90
23156;DHT22;11746;50.876;4.246;2023-07-31T08:29:23;17.50;99.90
23156;DHT22;11746;50.876;4.246;2023-07-31T08:31:49;17.50;99.90
23156;DHT22;11746;50.876;4.246;2023-07-31T08:34:15;17.50;99.90
23156;DHT22;11746;50.876;4.246;2023-07-31T08:36:41;17.50;99.90
23156;DHT22;11746;50.876;4.246;2023-07-31T08:39:07;17.30;99.90
23156;DHT22;11746;50.876;4.246;2023-07-31T08:41:40;17.30;99.90
23156;DHT22;11746;50.876;4.246;2023-07-31T08:44:07;17.30;99.90
23156;DHT22;11746;50.876;4.246;2023-07-31T08:46:33;17.40;99.90
23156;DHT22;11746;50.876;4.246;2023-07-31T08:49:00;17.30;99.90
23156;DHT22;11746;50.876;4.246;2023-07-31T08:51:30;17.30;99.90
23156;DHT22;11746;50.876;4.246;2023-07-31T08:53:55;17.40;99.90
23156;DHT22;11746;50.876;4.246;2023-07-31T08:56:23;17.40;99.90
23156;DHT22;11746;50.876;4.246;2023-07-31T08:58:49;17.40;99.90
23156;DHT22;11746;50.876;4.246;2023-07-31T09:01:16;17.40;99.90
23156;DHT22;11746;50.876;4.246;2023-07-31T09:03:44;17.50;99.90
23156;DHT22;11746;50.876;4.246;2023-07-31T09:06:10;17.50;99.90
23156;DHT22;11746;50.876;4.246;2023-07-31T09:08:40;17.60;99.90
23156;DHT22;11746;50.876;4.246;2023-07-31T09:11:07;17.60;99.90
23156;DHT22;11746;50.876;4.246;2023-07-31T09:13:33;17.50;99.90
23156;DHT22;11746;50.876;4.246;2023-07-31T09:15:59;17.60;99.90
23156;DHT22;11746;50.876;4.246;2023-07-31T09:18:25;17.70;99.90
23156;DHT22;11746;50.876;4.246;2023-07-31T09:21:06;17.60;99.90
23156;DHT22;11746;50.876;4.246;2023-07-31T09:23:43;17.70;99.90
23156;DHT22;11746;50.876;4.246;2023-07-31T09:26:09;18.00;99.90
23156;DHT22;11746;50.876;4.246;2023-07-31T09:28:36;18.10;99.90
23156;DHT22;11746;50.876;4.246;2023-07-31T09:31:02;18.30;99.90
23156;DHT22;11746;50.876;4.246;2023-07-31T09:33:27;18.30;99.90
23156;DHT22;11746;50.876;4.246;2023-07-31T09:35:53;18.10;99.90
23156;DHT22;11746;50.876;4.246;2023-07-31T09:38:19;18.00;99.90
23156;DHT22;11746;50.876;4.246;2023-07-31T09:40:46;18.00;99.90
23156;DHT22;11746;50.876;4.246;2023-07-31T09:43:14;17.90;99.90
23156;DHT22;11746;50.876;4.246;2023-07-31T09:45:43;18.10;99.90
23156;DHT22;11746;50.876;4.246;2023-07-31T09:48:15;18.00;99.90
23156;DHT22;11746;50.876;4.246;2023-07-31T09:50:46;18.00;99.90
23156;DHT22;11746;50.876;4.246;2023-07-31T09:53:12;17.80;99.90
23156;DHT22;11746;50.876;4.246;2023-07-31T09:55:39;17.60;99.90
23156;DHT22;11746;50.876;4.246;2023-07-31T09:58:08;17.70;99.90
23156;DHT22;11746;50.876;4.246;2023-07-31T10:00:35;17.60;99.90
23156;DHT22;11746;50.876;4.246;2023-07-31T10:03:04;17.60;99.90
23156;DHT22;11746;50.876;4.246;2023-07-31T10:05:35;17.70;99.90
23156;DHT22;11746;50.876;4.246;2023-07-31T10:08:01;17.80;99.90
23156;DHT22;11746;50.876;4.246;2023-07-31T10:10:28;17.90;99.90
23156;DHT22;11746;50.876;4.246;2023-07-31T10:12:56;17.90;99.90
23156;DHT22;11746;50.876;4.246;2023-07-31T10:15:22;17.90;99.90
23156;DHT22;11746;50.876;4.246;2023-07-31T10:17:49;18.00;99.90
23156;DHT22;11746;50.876;4.246;2023-07-31T10:20:16;17.90;99.90
23156;DHT22;11746;50.876;4.246;2023-07-31T10:22:43;17.90;99.90
23156;DHT22;11746;50.876;4.246;2023-07-31T10:25:09;17.90;99.90
23156;DHT22;11746;50.876;4.246;2023-07-31T10:27:36;18.00;99.90
23156;DHT22;11746;50.876;4.246;2023-07-31T10:30:09;18.10;99.90
23156;DHT22;11746;50.876;4.246;2023-07-31T10:32:35;18.10;99.90
23156;DHT22;11746;50.876;4.246;2023-07-31T10:35:03;18.10;99.90
23156;DHT22;11746;50.876;4.246;2023-07-31T10:37:41;18.10;99.90
23156;DHT22;11746;50.876;4.246;2023-07-31T10:40:23;18.10;99.90
23156;DHT22;11746;50.876;4.246;2023-07-31T10:42:50;18.20;99.90
23156;DHT22;11746;50.876;4.246;2023-07-31T10:45:37;18.40;99.90
23156;DHT22;11746;50.876;4.246;2023-07-31T10:48:04;18.40;99.90
23156;DHT22;11746;50.876;4.246;2023-07-31T10:50:48;18.50;99.90
23156;DHT22;11746;50.876;4.246;2023-07-31T10:53:25;18.60;99.90
23156;DHT22;11746;50.876;4.246;2023-07-31T10:55:52;18.80;99.90
23156;DHT22;11746;50.876;4.246;2023-07-31T10:58:20;18.90;99.90
23156;DHT22;11746;50.876;4.246;2023-07-31T11:00:46;18.80;99.90
23156;DHT22;11746;50.876;4.246;2023-07-31T11:03:19;18.80;99.90
23156;DHT22;11746;50.876;4.246;2023-07-31T11:06:01;19.00;99.90
23156;DHT22;11746;50.876;4.246;2023-07-31T11:08:32;19.10;99.90
23156;DHT22;11746;50.876;4.246;2023-07-31T11:13:31;19.30;99.90
23156;DHT22;11746;50.876;4.246;2023-07-31T11:15:58;19.30;99.90
23156;DHT22;11746;50.876;4.246;2023-07-31T11:18:26;19.40;99.90
23156;DHT22;11746;50.876;4.246;2023-07-31T11:20:53;19.50;99.90
23156;DHT22;11746;50.876;4.246;2023-07-31T11:23:20;19.60;99.90
23156;DHT22;11746;50.876;4.246;2023-07-31T11:25:46;19.60;99.90
23156;DHT22;11746;50.876;4.246;2023-07-31T11:28:13;19.50;99.90
23156;DHT22;11746;50.876;4.246;2023-07-31T11:30:41;19.70;99.90
23156;DHT22;11746;50.876;4.246;2023-07-31T11:33:08;19.30;99.90
23156;DHT22;11746;50.876;4.246;2023-07-31T11:35:45;19.40;99.90
23156;DHT22;11746;50.876;4.246;2023-07-31T11:38:12;19.30;99.90
23156;DHT22;11746;50.876;4.246;2023-07-31T11:40:44;19.30;99.90
23156;DHT22;11746;50.876;4.246;2023-07-31T11:43:10;19.10;99.90
23156;DHT22;11746;50.876;4.246;2023-07-31T11:45:48;19.10;99.90
23156;DHT22;11746;50.876;4.246;2023-07-31T11:48:24;19.00;99.90
23156;DHT22;11746;50.876;4.246;2023-07-31T11:50:53;18.90;99.90
23156;DHT22;11746;50.876;4.246;2023-07-31T11:53:26;18.80;99.90
23156;DHT22;11746;50.876;4.246;2023-07-31T11:55:52;18.80;99.90
23156;DHT22;11746;50.876;4.246;2023-07-31T11:58:19;18.90;99.90
23156;DHT22;11746;50.876;4.246;2023-07-31T12:00:46;19.00;99.90
23156;DHT22;11746;50.876;4.246;2023-07-31T12:03:12;19.00;99.90
23156;DHT22;11746;50.876;4.246;2023-07-31T12:05:38;19.00;99.90
23156;DHT22;11746;50.876;4.246;2023-07-31T12:08:09;19.10;99.90
23156;DHT22;11746;50.876;4.246;2023-07-31T12:10:37;19.30;99.90
23156;DHT22;11746;50.876;4.246;2023-07-31T12:13:08;19.40;99.90
23156;DHT22;11746;50.876;4.246;2023-07-31T12:15:43;19.40;99.90
23156;DHT22;11746;50.876;4.246;2023-07-31T12:18:19;19.30;99.90
23156;DHT22;11746;50.876;4.246;2023-07-31T12:20:57;19.30;99.90
23156;DHT22;11746;50.876;4.246;2023-07-31T12:23:33;19.40;99.90
23156;DHT22;11746;50.876;4.246;2023-07-31T12:26:07;19.40;99.90
23156;DHT22;11746;50.876;4.246;2023-07-31T12:28:47;19.30;99.90
23156;DHT22;11746;50.876;4.246;2023-07-31T12:31:19;19.30;99.90
23156;DHT22;11746;50.876;4.246;2023-07-31T12:33:52;19.50;99.90
23156;DHT22;11746;50.876;4.246;2023-07-31T12:36:23;19.60;99.90
23156;DHT22;11746;50.876;4.246;2023-07-31T12:38:52;19.80;99.90
23156;DHT22;11746;50.876;4.246;2023-07-31T12:41:18;19.90;99.90
23156;DHT22;11746;50.876;4.246;2023-07-31T12:43:45;20.00;99.90
23156;DHT22;11746;50.876;4.246;2023-07-31T12:46:11;20.10;99.90
23156;DHT22;11746;50.876;4.246;2023-07-31T12:48:38;20.10;99.90
23156;DHT22;11746;50.876;4.246;2023-07-31T12:51:05;20.00;99.90
23156;DHT22;11746;50.876;4.246;2023-07-31T12:53:32;19.90;99.90
23156;DHT22;11746;50.876;4.246;2023-07-31T12:55:58;19.80;99.90
23156;DHT22;11746;50.876;4.246;2023-07-31T12:58:24;19.70;99.90
23156;DHT22;11746;50.876;4.246;2023-07-31T13:00:51;19.60;99.90
23156;DHT22;11746;50.876;4.246;2023-07-31T13:03:17;19.40;99.90
23156;DHT22;11746;50.876;4.246;2023-07-31T13:05:43;19.20;99.90
23156;DHT22;11746;50.876;4.246;2023-07-31T13:08:11;19.00;99.90
23156;DHT22;11746;50.876;4.246;2023-07-31T13:10:37;18.90;99.90
23156;DHT22;11746;50.876;4.246;2023-07-31T13:13:03;18.90;99.90
23156;DHT22;11746;50.876;4.246;2023-07-31T13:15:29;18.80;99.90
23156;DHT22;11746;50.876;4.246;2023-07-31T13:17:55;18.80;99.90
23156;DHT22;11746;50.876;4.246;2023-07-31T13:20:21;18.70;99.90
23156;DHT22;11746;50.876;4.246;2023-07-31T13:22:47;18.60;99.90
23156;DHT22;11746;50.876;4.246;2023-07-31T13:25:13;18.50;99.90
23156;DHT22;11746;50.876;4.246;2023-07-31T13:27:39;18.40;99.90
23156;DHT22;11746;50.876;4.246;2023-07-31T13:30:06;18.30;99.90
23156;DHT22;11746;50.876;4.246;2023-07-31T13:32:32;18.30;99.90
23156;DHT22;11746;50.876;4.246;2023-07-31T13:34:58;18.10;99.90
23156;DHT22;11746;50.876;4.246;2023-07-31T13:37:24;18.20;99.90
23156;DHT22;11746;50.876;4.246;2023-07-31T13:39:50;18.20;99.90
23156;DHT22;11746;50.876;4.246;2023-07-31T13:42:16;18.20;99.90
23156;DHT22;11746;50.876;4.246;2023-07-31T13:44:42;18.10;99.90
23156;DHT22;11746;50.876;4.246;2023-07-31T13:47:09;18.20;99.90
23156;DHT22;11746;50.876;4.246;2023-07-31T13:49:35;18.10;99.90
23156;DHT22;11746;50.876;4.246;2023-07-31T13:52:02;18.10;99.90
23156;DHT22;11746;50.876;4.246;2023-07-31T13:54:29;18.10;99.90
23156;DHT22;11746;50.876;4.246;2023-07-31T13:56:54;18.10;99.90
23156;DHT22;11746;50.876;4.246;2023-07-31T13:59:22;18.10;99.90
23156;DHT22;11746;50.876;4.246;2023-07-31T14:01:48;18.10;99.90
23156;DHT22;11746;50.876;4.246;2023-07-31T14:04:15;18.20;99.90
23156;DHT22;11746;50.876;4.246;2023-07-31T14:06:41;18.10;99.90
23156;DHT22;11746;50.876;4.246;2023-07-31T14:09:07;18.20;99.90
23156;DHT22;11746;50.876;4.246;2023-07-31T14:11:34;18.30;99.90
23156;DHT22;11746;50.876;4.246;2023-07-31T14:14:00;18.20;99.90
23156;DHT22;11746;50.876;4.246;2023-07-31T14:16:27;18.30;99.90
23156;DHT22;11746;50.876;4.246;2023-07-31T14:18:53;18.30;99.90
23156;DHT22;11746;50.876;4.246;2023-07-31T14:21:20;18.30;99.90
23156;DHT22;11746;50.876;4.246;2023-07-31T14:23:46;18.30;99.90
23156;DHT22;11746;50.876;4.246;2023-07-31T14:26:14;18.40;99.90
23156;DHT22;11746;50.876;4.246;2023-07-31T14:28:45;18.50;99.90
23156;DHT22;11746;50.876;4.246;2023-07-31T14:31:11;18.40;99.90
23156;DHT22;11746;50.876;4.246;2023-07-31T14:33:37;18.30;99.90
23156;DHT22;11746;50.876;4.246;2023-07-31T14:36:03;18.30;99.90
23156;DHT22;11746;50.876;4.246;2023-07-31T14:38:29;18.30;99.90
23156;DHT22;11746;50.876;4.246;2023-07-31T14:40:55;18.20;99.90
23156;DHT22;11746;50.876;4.246;2023-07-31T14:43:21;18.20;99.90
23156;DHT22;11746;50.876;4.246;2023-07-31T14:45:47;18.10;99.90
23156;DHT22;11746;50.876;4.246;2023-07-31T14:48:14;18.20;99.90
23156;DHT22;11746;50.876;4.246;2023-07-31T14:50:39;18.30;99.90
23156;DHT22;11746;50.876;4.246;2023-07-31T14:53:05;18.20;99.90
23156;DHT22;11746;50.876;4.246;2023-07-31T14:55:31;18.30;99.90
23156;DHT22;11746;50.876;4.246;2023-07-31T14:57:57;18.10;99.90
23156;DHT22;11746;50.876;4.246;2023-07-31T15:00:23;18.20;99.90
23156;DHT22;11746;50.876;4.246;2023-07-31T15:02:50;18.20;99.90
23156;DHT22;11746;50.876;4.246;2023-07-31T15:05:16;18.20;99.90
23156;DHT22;11746;50.876;4.246;2023-07-31T15:07:41;18.20;99.90
23156;DHT22;11746;50.876;4.246;2023-07-31T15:10:08;18.20;99.90
23156;DHT22;11746;50.876;4.246;2023-07-31T15:12:34;18.20;99.90
23156;DHT22;11746;50.876;4.246;2023-07-31T15:14:59;18.10;99.90
23156;DHT22;11746;50.876;4.246;2023-07-31T15:17:25;18.10;99.90
23156;DHT22;11746;50.876;4.246;2023-07-31T15:19:51;18.10;99.90
23156;DHT22;11746;50.876;4.246;2023-07-31T15:22:19;18.20;99.90
23156;DHT22;11746;50.876;4.246;2023-07-31T15:24:45;18.10;99.90
23156;DHT22;11746;50.876;4.246;2023-07-31T15:27:13;18.10;99.90
23156;DHT22;11746;50.876;4.246;2023-07-31T15:29:39;18.20;99.90
23156;DHT22;11746;50.876;4.246;2023-07-31T15:32:05;18.10;99.90
23156;DHT22;11746;50.876;4.246;2023-07-31T15:34:31;18.00;99.90